ROMMA est une association bénévole à but non lucratif. Votre soutien est indispensable : ADHERER à ROMMA ou FAIRE un DON

St-Christophe/Guiers - Berland - (38, Isère)

Massif de la Chartreuse (533 m)   Longitude: 05° 46' 44" E   Latitude: 45° 25' 43" N Station partenaire n°32
 

Détail journalier du     <<     >>

Température Precipitation Humidité Pression Vent Dir Rafale Dir. rafale Ensol.
Heure (°C) (mm) (%) (hPa) (km/h) (km/h) (min)
01:00 3.9096102303E0
02:00 4.1096102300---0
03:00 3.7096102200---0
04:00 3.8096102200---0
05:00 3.8097102205ONO0
06:00 3.7097102200---0
07:00 3.70.297102200---0
08:00 4.3097102203ONO0
09:00 5.009710221---6NNO5
10:00 5.409510223NNO16NNE0
11:00 6.608610228ENE24SE0
12:00 7.608110227NNE18E15
13:00 9.007710226NNE18N0
14:00 9.207010225ONO16NNO0
15:00 9.606610217ENE23ENE0
16:00 10.006610219ENE21E0
17:00 9.707610215NNE16NNO0
18:00 9.407810214SSO11NE0
19:00 9.108010213OSO15OSO0
20:00 8.808210211SO6SO0
21:00 8.2085102105SO0
22:00 7.2090102105ENE0
23:00 5.909110212ENE8ENE0
minuit 6.308510214ENE10E0

Graphique du 29-04-2019

 

Serveur OMMA